Patterson Heights, Pennsylvania
Current Conditions -  °F | °C
As of 7:47 AM on Thursday 18 Dec 2014 (Local Time) from KBVI Reporting Station
Overcast Overcast  
Wind Chill: -6°   Ceiling: 1900
Heat Index: -2°   Visibility: 10mi
Dew Point: -6°   Wind: 7mph
Humidity: 74%   Direction: 270°W
Pressure: 30.16"   Gusts: NA
Location:  40.7641°N, 80.3864°W
Report Text: KBVI 181247Z 27006KT 10SM OVC019 M02/M06 A3016
Loading
Personal Weather Stations






























Interactive Weather Map New forecast layout! Learn more

10-Day Weather Forecast

Advertisements
Track Severe Weather on mobile